sensor_id;sensor_type;location;lat;lon;timestamp;temperature;humidity
60027;DHT22;45891;53.006;6.512;2023-03-23T00:01:11;10.70;99.90
60027;DHT22;45891;53.006;6.512;2023-03-23T00:03:39;10.70;99.90
60027;DHT22;45891;53.006;6.512;2023-03-23T00:06:06;10.80;99.90
60027;DHT22;45891;53.006;6.512;2023-03-23T00:08:33;10.80;99.90
60027;DHT22;45891;53.006;6.512;2023-03-23T00:10:59;10.80;99.90
60027;DHT22;45891;53.006;6.512;2023-03-23T00:13:27;10.80;99.90
60027;DHT22;45891;53.006;6.512;2023-03-23T00:15:53;10.80;99.90
60027;DHT22;45891;53.006;6.512;2023-03-23T00:18:20;10.90;99.90
60027;DHT22;45891;53.006;6.512;2023-03-23T00:20:53;10.90;99.90
60027;DHT22;45891;53.006;6.512;2023-03-23T00:23:19;10.90;99.90
60027;DHT22;45891;53.006;6.512;2023-03-23T00:25:53;10.90;99.90
60027;DHT22;45891;53.006;6.512;2023-03-23T00:28:22;10.90;99.90
60027;DHT22;45891;53.006;6.512;2023-03-23T00:30:54;10.80;99.90
60027;DHT22;45891;53.006;6.512;2023-03-23T00:33:23;10.90;99.90
60027;DHT22;45891;53.006;6.512;2023-03-23T00:35:49;10.80;99.90
60027;DHT22;45891;53.006;6.512;2023-03-23T00:38:18;10.90;99.90
60027;DHT22;45891;53.006;6.512;2023-03-23T00:40:45;10.90;99.90
60027;DHT22;45891;53.006;6.512;2023-03-23T00:43:16;10.90;99.90
60027;DHT22;45891;53.006;6.512;2023-03-23T00:45:43;10.90;99.90
60027;DHT22;45891;53.006;6.512;2023-03-23T00:48:13;10.90;99.90
60027;DHT22;45891;53.006;6.512;2023-03-23T00:50:39;10.90;99.90
60027;DHT22;45891;53.006;6.512;2023-03-23T00:53:05;10.90;99.90
60027;DHT22;45891;53.006;6.512;2023-03-23T00:55:31;10.90;99.90
60027;DHT22;45891;53.006;6.512;2023-03-23T00:57:57;10.80;99.90
60027;DHT22;45891;53.006;6.512;2023-03-23T01:00:23;10.90;99.90
60027;DHT22;45891;53.006;6.512;2023-03-23T01:02:49;10.90;99.90
60027;DHT22;45891;53.006;6.512;2023-03-23T01:05:20;10.90;99.90
60027;DHT22;45891;53.006;6.512;2023-03-23T01:07:46;10.90;99.90
60027;DHT22;45891;53.006;6.512;2023-03-23T01:10:14;10.90;99.90
60027;DHT22;45891;53.006;6.512;2023-03-23T01:12:42;10.90;99.90
60027;DHT22;45891;53.006;6.512;2023-03-23T01:15:09;10.90;99.90
60027;DHT22;45891;53.006;6.512;2023-03-23T01:17:35;10.90;99.90
60027;DHT22;45891;53.006;6.512;2023-03-23T01:20:01;10.90;99.90
60027;DHT22;45891;53.006;6.512;2023-03-23T01:22:27;10.90;99.90
60027;DHT22;45891;53.006;6.512;2023-03-23T01:24:52;10.90;99.90
60027;DHT22;45891;53.006;6.512;2023-03-23T01:27:18;11.00;99.90
60027;DHT22;45891;53.006;6.512;2023-03-23T01:29:44;11.00;99.90
60027;DHT22;45891;53.006;6.512;2023-03-23T01:32:10;11.00;99.90
60027;DHT22;45891;53.006;6.512;2023-03-23T01:34:36;11.00;99.90
60027;DHT22;45891;53.006;6.512;2023-03-23T01:37:02;11.00;99.90
60027;DHT22;45891;53.006;6.512;2023-03-23T01:39:28;11.00;99.90
60027;DHT22;45891;53.006;6.512;2023-03-23T01:41:54;11.00;99.90
60027;DHT22;45891;53.006;6.512;2023-03-23T01:46:46;11.10;99.90
60027;DHT22;45891;53.006;6.512;2023-03-23T01:49:19;11.00;99.90
60027;DHT22;45891;53.006;6.512;2023-03-23T01:51:48;11.10;99.90
60027;DHT22;45891;53.006;6.512;2023-03-23T01:54:15;11.10;99.90
60027;DHT22;45891;53.006;6.512;2023-03-23T01:56:45;11.10;99.90
60027;DHT22;45891;53.006;6.512;2023-03-23T01:59:13;11.10;99.90
60027;DHT22;45891;53.006;6.512;2023-03-23T02:01:39;11.20;99.90
60027;DHT22;45891;53.006;6.512;2023-03-23T02:04:13;11.20;99.90
60027;DHT22;45891;53.006;6.512;2023-03-23T02:06:40;11.20;99.90
60027;DHT22;45891;53.006;6.512;2023-03-23T02:09:06;11.20;99.90
60027;DHT22;45891;53.006;6.512;2023-03-23T02:11:32;11.20;99.90
60027;DHT22;45891;53.006;6.512;2023-03-23T02:13:58;11.30;99.90
60027;DHT22;45891;53.006;6.512;2023-03-23T02:16:42;11.20;99.90
60027;DHT22;45891;53.006;6.512;2023-03-23T02:19:25;11.30;99.90
60027;DHT22;45891;53.006;6.512;2023-03-23T02:27:08;11.20;99.90
60027;DHT22;45891;53.006;6.512;2023-03-23T02:32:13;11.10;99.90
60027;DHT22;45891;53.006;6.512;2023-03-23T02:34:53;11.10;99.90
60027;DHT22;45891;53.006;6.512;2023-03-23T02:37:21;11.10;99.90
60027;DHT22;45891;53.006;6.512;2023-03-23T02:39:55;11.10;99.90
60027;DHT22;45891;53.006;6.512;2023-03-23T02:42:24;11.10;99.90
60027;DHT22;45891;53.006;6.512;2023-03-23T02:44:51;11.10;99.90
60027;DHT22;45891;53.006;6.512;2023-03-23T02:47:22;11.10;99.90
60027;DHT22;45891;53.006;6.512;2023-03-23T02:49:50;11.10;99.90
60027;DHT22;45891;53.006;6.512;2023-03-23T02:52:18;11.10;99.90
60027;DHT22;45891;53.006;6.512;2023-03-23T02:54:46;11.10;99.90
60027;DHT22;45891;53.006;6.512;2023-03-23T02:57:13;11.10;99.90
60027;DHT22;45891;53.006;6.512;2023-03-23T02:59:39;11.10;99.90
60027;DHT22;45891;53.006;6.512;2023-03-23T03:04:31;11.10;99.90
60027;DHT22;45891;53.006;6.512;2023-03-23T03:10:09;11.10;99.90
60027;DHT22;45891;53.006;6.512;2023-03-23T03:15:14;11.00;99.90
60027;DHT22;45891;53.006;6.512;2023-03-23T03:17:44;11.00;99.90
60027;DHT22;45891;53.006;6.512;2023-03-23T03:20:11;11.00;99.90
60027;DHT22;45891;53.006;6.512;2023-03-23T03:22:39;11.00;99.90
60027;DHT22;45891;53.006;6.512;2023-03-23T03:25:07;11.00;99.90
60027;DHT22;45891;53.006;6.512;2023-03-23T03:27:34;11.00;99.90
60027;DHT22;45891;53.006;6.512;2023-03-23T03:30:01;11.00;99.90
60027;DHT22;45891;53.006;6.512;2023-03-23T03:32:34;11.00;99.90
60027;DHT22;45891;53.006;6.512;2023-03-23T03:35:04;11.00;99.90
60027;DHT22;45891;53.006;6.512;2023-03-23T03:37:33;11.10;99.90
60027;DHT22;45891;53.006;6.512;2023-03-23T03:40:04;11.10;99.90
60027;DHT22;45891;53.006;6.512;2023-03-23T03:42:33;11.00;99.90
60027;DHT22;45891;53.006;6.512;2023-03-23T03:44:59;10.90;99.90
60027;DHT22;45891;53.006;6.512;2023-03-23T03:47:26;10.90;99.90
60027;DHT22;45891;53.006;6.512;2023-03-23T03:49:51;10.90;99.90
60027;DHT22;45891;53.006;6.512;2023-03-23T03:52:17;10.80;99.90
60027;DHT22;45891;53.006;6.512;2023-03-23T03:54:43;10.80;99.90
60027;DHT22;45891;53.006;6.512;2023-03-23T03:57:10;10.70;99.90
60027;DHT22;45891;53.006;6.512;2023-03-23T03:59:37;10.70;99.90
60027;DHT22;45891;53.006;6.512;2023-03-23T04:02:03;10.70;99.90
60027;DHT22;45891;53.006;6.512;2023-03-23T04:04:29;10.70;99.90
60027;DHT22;45891;53.006;6.512;2023-03-23T04:06:55;10.70;99.90
60027;DHT22;45891;53.006;6.512;2023-03-23T04:09:23;10.70;99.90
60027;DHT22;45891;53.006;6.512;2023-03-23T04:11:48;10.70;99.90
60027;DHT22;45891;53.006;6.512;2023-03-23T04:14:14;10.80;99.90
60027;DHT22;45891;53.006;6.512;2023-03-23T04:16:40;10.80;99.90
60027;DHT22;45891;53.006;6.512;2023-03-23T04:19:07;10.80;99.90
60027;DHT22;45891;53.006;6.512;2023-03-23T04:21:33;10.90;99.90
60027;DHT22;45891;53.006;6.512;2023-03-23T04:23:59;11.00;99.90
60027;DHT22;45891;53.006;6.512;2023-03-23T04:26:26;10.90;99.90
60027;DHT22;45891;53.006;6.512;2023-03-23T04:28:52;10.80;99.90
60027;DHT22;45891;53.006;6.512;2023-03-23T04:31:18;10.70;99.90
60027;DHT22;45891;53.006;6.512;2023-03-23T04:33:44;10.60;99.90
60027;DHT22;45891;53.006;6.512;2023-03-23T04:36:11;10.60;99.90
60027;DHT22;45891;53.006;6.512;2023-03-23T04:38:41;10.60;99.90
60027;DHT22;45891;53.006;6.512;2023-03-23T04:41:08;10.60;99.90
60027;DHT22;45891;53.006;6.512;2023-03-23T04:43:34;10.50;99.90
60027;DHT22;45891;53.006;6.512;2023-03-23T04:46:07;10.40;99.90
60027;DHT22;45891;53.006;6.512;2023-03-23T04:48:34;10.40;99.90
60027;DHT22;45891;53.006;6.512;2023-03-23T04:51:02;10.30;99.90
60027;DHT22;45891;53.006;6.512;2023-03-23T04:53:29;10.30;99.90
60027;DHT22;45891;53.006;6.512;2023-03-23T04:55:54;10.30;99.90
60027;DHT22;45891;53.006;6.512;2023-03-23T04:58:20;10.30;99.90
60027;DHT22;45891;53.006;6.512;2023-03-23T05:00:48;10.20;99.90
60027;DHT22;45891;53.006;6.512;2023-03-23T05:03:18;10.20;99.90
60027;DHT22;45891;53.006;6.512;2023-03-23T05:05:44;10.10;99.90
60027;DHT22;45891;53.006;6.512;2023-03-23T05:08:13;10.20;99.90
60027;DHT22;45891;53.006;6.512;2023-03-23T05:10:39;10.20;99.90
60027;DHT22;45891;53.006;6.512;2023-03-23T05:13:05;10.10;99.90
60027;DHT22;45891;53.006;6.512;2023-03-23T05:15:31;10.10;99.90
60027;DHT22;45891;53.006;6.512;2023-03-23T05:17:56;10.10;99.90
60027;DHT22;45891;53.006;6.512;2023-03-23T05:20:22;10.00;99.90
60027;DHT22;45891;53.006;6.512;2023-03-23T05:22:48;10.00;99.90
60027;DHT22;45891;53.006;6.512;2023-03-23T05:25:15;9.90;99.90
60027;DHT22;45891;53.006;6.512;2023-03-23T05:27:41;9.90;99.90
60027;DHT22;45891;53.006;6.512;2023-03-23T05:30:14;10.00;99.90
60027;DHT22;45891;53.006;6.512;2023-03-23T05:32:44;10.00;99.90
60027;DHT22;45891;53.006;6.512;2023-03-23T05:35:11;9.90;99.90
60027;DHT22;45891;53.006;6.512;2023-03-23T05:37:37;10.00;99.90
60027;DHT22;45891;53.006;6.512;2023-03-23T05:40:04;10.00;99.90
60027;DHT22;45891;53.006;6.512;2023-03-23T05:42:32;10.10;99.90
60027;DHT22;45891;53.006;6.512;2023-03-23T05:44:58;10.10;99.90
60027;DHT22;45891;53.006;6.512;2023-03-23T05:47:24;10.20;99.90
60027;DHT22;45891;53.006;6.512;2023-03-23T05:49:51;10.20;99.90
60027;DHT22;45891;53.006;6.512;2023-03-23T05:52:20;10.20;99.90
60027;DHT22;45891;53.006;6.512;2023-03-23T05:54:46;10.20;99.90
60027;DHT22;45891;53.006;6.512;2023-03-23T05:57:12;10.20;99.90
60027;DHT22;45891;53.006;6.512;2023-03-23T05:59:38;10.20;99.90
60027;DHT22;45891;53.006;6.512;2023-03-23T06:02:04;10.10;99.90
60027;DHT22;45891;53.006;6.512;2023-03-23T06:04:30;10.20;99.90
60027;DHT22;45891;53.006;6.512;2023-03-23T06:07:00;10.20;99.90
60027;DHT22;45891;53.006;6.512;2023-03-23T06:09:26;10.20;99.90
60027;DHT22;45891;53.006;6.512;2023-03-23T06:11:52;10.30;99.90
60027;DHT22;45891;53.006;6.512;2023-03-23T06:14:18;10.30;99.90
60027;DHT22;45891;53.006;6.512;2023-03-23T06:16:44;10.30;99.90
60027;DHT22;45891;53.006;6.512;2023-03-23T06:19:10;10.30;99.90
60027;DHT22;45891;53.006;6.512;2023-03-23T06:21:37;10.40;99.90
60027;DHT22;45891;53.006;6.512;2023-03-23T06:24:02;10.40;99.90
60027;DHT22;45891;53.006;6.512;2023-03-23T06:26:34;10.40;99.90
60027;DHT22;45891;53.006;6.512;2023-03-23T06:29:00;10.40;99.90
60027;DHT22;45891;53.006;6.512;2023-03-23T06:31:26;10.40;99.90
60027;DHT22;45891;53.006;6.512;2023-03-23T06:33:53;10.40;99.90
60027;DHT22;45891;53.006;6.512;2023-03-23T06:36:19;10.50;99.90
60027;DHT22;45891;53.006;6.512;2023-03-23T06:38:45;10.40;99.90
60027;DHT22;45891;53.006;6.512;2023-03-23T06:41:11;10.50;99.90
60027;DHT22;45891;53.006;6.512;2023-03-23T06:43:37;10.40;99.90
60027;DHT22;45891;53.006;6.512;2023-03-23T06:46:08;10.50;99.90
60027;DHT22;45891;53.006;6.512;2023-03-23T06:48:33;10.50;99.90
60027;DHT22;45891;53.006;6.512;2023-03-23T06:50:59;10.50;99.90
60027;DHT22;45891;53.006;6.512;2023-03-23T06:53:25;10.50;99.90
60027;DHT22;45891;53.006;6.512;2023-03-23T06:55:51;10.60;99.90
60027;DHT22;45891;53.006;6.512;2023-03-23T06:58:17;10.60;99.90
60027;DHT22;45891;53.006;6.512;2023-03-23T07:00:43;10.60;99.90
60027;DHT22;45891;53.006;6.512;2023-03-23T07:03:10;10.70;99.90
60027;DHT22;45891;53.006;6.512;2023-03-23T07:05:35;10.60;99.90
60027;DHT22;45891;53.006;6.512;2023-03-23T07:08:02;10.70;99.90
60027;DHT22;45891;53.006;6.512;2023-03-23T07:10:28;10.70;99.90
60027;DHT22;45891;53.006;6.512;2023-03-23T07:12:55;10.70;99.90
60027;DHT22;45891;53.006;6.512;2023-03-23T07:15:21;10.70;99.90
60027;DHT22;45891;53.006;6.512;2023-03-23T07:17:47;10.70;99.90
60027;DHT22;45891;53.006;6.512;2023-03-23T07:20:13;10.70;99.90
60027;DHT22;45891;53.006;6.512;2023-03-23T07:22:40;10.70;99.90
60027;DHT22;45891;53.006;6.512;2023-03-23T07:25:06;10.70;99.90
60027;DHT22;45891;53.006;6.512;2023-03-23T07:27:33;10.70;99.90
60027;DHT22;45891;53.006;6.512;2023-03-23T07:29:59;10.70;99.90
60027;DHT22;45891;53.006;6.512;2023-03-23T07:32:25;10.80;99.90
60027;DHT22;45891;53.006;6.512;2023-03-23T07:34:51;10.80;99.90
60027;DHT22;45891;53.006;6.512;2023-03-23T07:37:17;10.80;99.90
60027;DHT22;45891;53.006;6.512;2023-03-23T07:39:43;10.80;99.90
60027;DHT22;45891;53.006;6.512;2023-03-23T07:42:09;10.90;99.90
60027;DHT22;45891;53.006;6.512;2023-03-23T07:44:35;11.00;99.90
60027;DHT22;45891;53.006;6.512;2023-03-23T07:47:01;11.00;99.90
60027;DHT22;45891;53.006;6.512;2023-03-23T07:49:27;11.00;99.90
60027;DHT22;45891;53.006;6.512;2023-03-23T07:51:54;11.00;99.90
60027;DHT22;45891;53.006;6.512;2023-03-23T07:54:19;11.10;99.90
60027;DHT22;45891;53.006;6.512;2023-03-23T07:56:45;11.20;99.90
60027;DHT22;45891;53.006;6.512;2023-03-23T07:59:12;11.20;99.90
60027;DHT22;45891;53.006;6.512;2023-03-23T08:01:38;11.10;99.90
60027;DHT22;45891;53.006;6.512;2023-03-23T08:04:05;11.20;99.90
60027;DHT22;45891;53.006;6.512;2023-03-23T08:06:34;11.20;99.90
60027;DHT22;45891;53.006;6.512;2023-03-23T08:09:00;11.20;99.90
60027;DHT22;45891;53.006;6.512;2023-03-23T08:11:28;11.20;99.90
60027;DHT22;45891;53.006;6.512;2023-03-23T08:13:54;11.20;99.90
60027;DHT22;45891;53.006;6.512;2023-03-23T08:16:20;11.20;99.90
60027;DHT22;45891;53.006;6.512;2023-03-23T08:18:46;11.30;99.90
60027;DHT22;45891;53.006;6.512;2023-03-23T08:21:12;11.30;99.90
60027;DHT22;45891;53.006;6.512;2023-03-23T08:23:38;11.30;99.90
60027;DHT22;45891;53.006;6.512;2023-03-23T08:26:05;11.30;99.90
60027;DHT22;45891;53.006;6.512;2023-03-23T08:28:35;11.40;99.90
60027;DHT22;45891;53.006;6.512;2023-03-23T08:31:05;11.40;99.90
60027;DHT22;45891;53.006;6.512;2023-03-23T08:33:32;11.30;99.90
60027;DHT22;45891;53.006;6.512;2023-03-23T08:35:59;11.30;99.90
60027;DHT22;45891;53.006;6.512;2023-03-23T08:38:27;11.30;99.90
60027;DHT22;45891;53.006;6.512;2023-03-23T08:40:57;11.30;99.90
60027;DHT22;45891;53.006;6.512;2023-03-23T08:43:23;11.30;99.90
60027;DHT22;45891;53.006;6.512;2023-03-23T08:45:49;11.40;99.90
60027;DHT22;45891;53.006;6.512;2023-03-23T08:48:15;11.40;99.90
60027;DHT22;45891;53.006;6.512;2023-03-23T08:50:42;11.60;99.90
60027;DHT22;45891;53.006;6.512;2023-03-23T08:53:08;12.20;99.90
60027;DHT22;45891;53.006;6.512;2023-03-23T08:55:34;12.00;99.90
60027;DHT22;45891;53.006;6.512;2023-03-23T08:58:00;12.20;99.90
60027;DHT22;45891;53.006;6.512;2023-03-23T09:00:26;12.60;99.90
60027;DHT22;45891;53.006;6.512;2023-03-23T09:02:53;12.30;99.90
60027;DHT22;45891;53.006;6.512;2023-03-23T09:05:24;12.60;99.90
60027;DHT22;45891;53.006;6.512;2023-03-23T09:07:51;12.40;99.90
60027;DHT22;45891;53.006;6.512;2023-03-23T09:10:18;12.40;99.90
60027;DHT22;45891;53.006;6.512;2023-03-23T09:12:45;12.20;99.90
60027;DHT22;45891;53.006;6.512;2023-03-23T09:15:12;12.40;99.90
60027;DHT22;45891;53.006;6.512;2023-03-23T09:17:40;12.50;99.90
60027;DHT22;45891;53.006;6.512;2023-03-23T09:20:07;12.20;99.90
60027;DHT22;45891;53.006;6.512;2023-03-23T09:22:38;12.30;99.90
60027;DHT22;45891;53.006;6.512;2023-03-23T09:25:05;12.20;99.90
60027;DHT22;45891;53.006;6.512;2023-03-23T09:27:32;12.40;99.90
60027;DHT22;45891;53.006;6.512;2023-03-23T09:29:58;12.70;99.90
60027;DHT22;45891;53.006;6.512;2023-03-23T09:32:24;13.10;99.90
60027;DHT22;45891;53.006;6.512;2023-03-23T09:34:51;12.80;99.90
60027;DHT22;45891;53.006;6.512;2023-03-23T09:37:21;12.50;99.90
60027;DHT22;45891;53.006;6.512;2023-03-23T09:39:47;12.70;99.90
60027;DHT22;45891;53.006;6.512;2023-03-23T09:42:18;12.60;99.90
60027;DHT22;45891;53.006;6.512;2023-03-23T09:47:28;14.10;99.90
60027;DHT22;45891;53.006;6.512;2023-03-23T09:50:02;14.70;99.90
60027;DHT22;45891;53.006;6.512;2023-03-23T09:52:36;15.30;99.90
60027;DHT22;45891;53.006;6.512;2023-03-23T09:55:03;15.00;99.90
60027;DHT22;45891;53.006;6.512;2023-03-23T09:59:57;14.50;99.90
60027;DHT22;45891;53.006;6.512;2023-03-23T10:07:40;15.70;99.90
60027;DHT22;45891;53.006;6.512;2023-03-23T10:10:08;16.10;99.90
60027;DHT22;45891;53.006;6.512;2023-03-23T10:12:59;15.90;99.90
60027;DHT22;45891;53.006;6.512;2023-03-23T10:15:29;16.70;99.90
60027;DHT22;45891;53.006;6.512;2023-03-23T10:18:14;16.70;99.90
60027;DHT22;45891;53.006;6.512;2023-03-23T10:20:54;16.50;99.90
60027;DHT22;45891;53.006;6.512;2023-03-23T10:23:33;16.60;99.90
60027;DHT22;45891;53.006;6.512;2023-03-23T10:26:06;16.20;99.90
60027;DHT22;45891;53.006;6.512;2023-03-23T10:28:35;15.50;99.90
60027;DHT22;45891;53.006;6.512;2023-03-23T10:31:01;15.80;99.90
60027;DHT22;45891;53.006;6.512;2023-03-23T10:36:10;15.20;99.90
60027;DHT22;45891;53.006;6.512;2023-03-23T10:38:40;15.90;99.90
60027;DHT22;45891;53.006;6.512;2023-03-23T10:41:11;16.50;99.90
60027;DHT22;45891;53.006;6.512;2023-03-23T10:43:38;16.60;99.90
60027;DHT22;45891;53.006;6.512;2023-03-23T10:48:37;16.00;99.90
60027;DHT22;45891;53.006;6.512;2023-03-23T10:51:05;15.60;99.90
60027;DHT22;45891;53.006;6.512;2023-03-23T10:53:32;14.90;99.90
60027;DHT22;45891;53.006;6.512;2023-03-23T10:56:00;14.50;99.90
60027;DHT22;45891;53.006;6.512;2023-03-23T10:58:35;14.20;99.90
60027;DHT22;45891;53.006;6.512;2023-03-23T11:01:02;14.10;99.90
60027;DHT22;45891;53.006;6.512;2023-03-23T11:05:59;15.20;99.90
60027;DHT22;45891;53.006;6.512;2023-03-23T11:08:26;16.00;99.90
60027;DHT22;45891;53.006;6.512;2023-03-23T11:10:55;16.40;99.90
60027;DHT22;45891;53.006;6.512;2023-03-23T11:13:27;16.50;99.90
60027;DHT22;45891;53.006;6.512;2023-03-23T11:15:54;16.60;99.90
60027;DHT22;45891;53.006;6.512;2023-03-23T11:20:54;17.20;99.80
60027;DHT22;45891;53.006;6.512;2023-03-23T11:23:30;16.90;99.70
60027;DHT22;45891;53.006;6.512;2023-03-23T11:25:59;16.30;99.90
60027;DHT22;45891;53.006;6.512;2023-03-23T11:28:26;15.80;99.90
60027;DHT22;45891;53.006;6.512;2023-03-23T11:30:53;16.00;99.90
60027;DHT22;45891;53.006;6.512;2023-03-23T11:33:20;16.10;99.90
60027;DHT22;45891;53.006;6.512;2023-03-23T11:35:46;16.20;99.90
60027;DHT22;45891;53.006;6.512;2023-03-23T11:38:18;16.90;99.90
60027;DHT22;45891;53.006;6.512;2023-03-23T11:40:50;17.60;99.40
60027;DHT22;45891;53.006;6.512;2023-03-23T11:43:21;17.20;99.30
60027;DHT22;45891;53.006;6.512;2023-03-23T11:53:27;16.00;99.70
60027;DHT22;45891;53.006;6.512;2023-03-23T11:55:59;16.70;99.30
60027;DHT22;45891;53.006;6.512;2023-03-23T11:58:26;17.10;99.90
60027;DHT22;45891;53.006;6.512;2023-03-23T12:01:05;17.30;99.60
60027;DHT22;45891;53.006;6.512;2023-03-23T12:03:39;17.00;98.00
60027;DHT22;45891;53.006;6.512;2023-03-23T12:06:13;16.30;97.80
60027;DHT22;45891;53.006;6.512;2023-03-23T12:11:20;15.50;98.10
60027;DHT22;45891;53.006;6.512;2023-03-23T12:19:01;15.50;98.90
60027;DHT22;45891;53.006;6.512;2023-03-23T12:26:47;15.60;97.90
60027;DHT22;45891;53.006;6.512;2023-03-23T12:31:49;15.10;98.60
60027;DHT22;45891;53.006;6.512;2023-03-23T12:44:39;14.80;99.10
60027;DHT22;45891;53.006;6.512;2023-03-23T12:49:35;14.80;99.70
60027;DHT22;45891;53.006;6.512;2023-03-23T12:54:51;15.80;99.40
60027;DHT22;45891;53.006;6.512;2023-03-23T12:57:22;16.30;99.30
60027;DHT22;45891;53.006;6.512;2023-03-23T13:02:29;16.70;98.40
60027;DHT22;45891;53.006;6.512;2023-03-23T13:05:04;16.40;98.80
60027;DHT22;45891;53.006;6.512;2023-03-23T13:07:37;16.80;99.60
60027;DHT22;45891;53.006;6.512;2023-03-23T13:10:12;16.90;98.20
60027;DHT22;45891;53.006;6.512;2023-03-23T13:12:41;17.40;98.50
60027;DHT22;45891;53.006;6.512;2023-03-23T13:17:44;17.40;98.10
60027;DHT22;45891;53.006;6.512;2023-03-23T13:26:09;15.90;98.80
60027;DHT22;45891;53.006;6.512;2023-03-23T13:28:18;16.00;99.30
60027;DHT22;45891;53.006;6.512;2023-03-23T13:30:59;15.80;99.80
60027;DHT22;45891;53.006;6.512;2023-03-23T13:33:28;16.20;99.90
60027;DHT22;45891;53.006;6.512;2023-03-23T13:35:54;16.80;98.60
60027;DHT22;45891;53.006;6.512;2023-03-23T13:38:24;17.20;97.90
60027;DHT22;45891;53.006;6.512;2023-03-23T13:40:51;17.90;98.30
60027;DHT22;45891;53.006;6.512;2023-03-23T13:43:29;17.50;97.00
60027;DHT22;45891;53.006;6.512;2023-03-23T13:46:05;16.70;97.40
60027;DHT22;45891;53.006;6.512;2023-03-23T13:48:39;16.70;97.40
60027;DHT22;45891;53.006;6.512;2023-03-23T13:53:50;16.20;98.40
60027;DHT22;45891;53.006;6.512;2023-03-23T13:56:21;15.90;99.50
60027;DHT22;45891;53.006;6.512;2023-03-23T13:58:48;15.90;99.00
60027;DHT22;45891;53.006;6.512;2023-03-23T14:01:16;15.70;99.30
60027;DHT22;45891;53.006;6.512;2023-03-23T14:03:47;16.30;99.50
60027;DHT22;45891;53.006;6.512;2023-03-23T14:06:17;16.30;98.00
60027;DHT22;45891;53.006;6.512;2023-03-23T14:08:44;15.60;98.70
60027;DHT22;45891;53.006;6.512;2023-03-23T14:11:13;16.30;98.90
60027;DHT22;45891;53.006;6.512;2023-03-23T14:13:47;17.40;97.90
60027;DHT22;45891;53.006;6.512;2023-03-23T14:18:49;17.10;98.00
60027;DHT22;45891;53.006;6.512;2023-03-23T14:21:16;17.80;97.70
60027;DHT22;45891;53.006;6.512;2023-03-23T14:23:43;17.20;97.90
60027;DHT22;45891;53.006;6.512;2023-03-23T14:26:12;16.30;98.90
60027;DHT22;45891;53.006;6.512;2023-03-23T14:28:42;15.60;99.80
60027;DHT22;45891;53.006;6.512;2023-03-23T14:31:13;16.00;99.90
60027;DHT22;45891;53.006;6.512;2023-03-23T14:33:40;16.90;98.80
60027;DHT22;45891;53.006;6.512;2023-03-23T14:36:07;17.30;98.60
60027;DHT22;45891;53.006;6.512;2023-03-23T14:38:33;17.80;97.90
60027;DHT22;45891;53.006;6.512;2023-03-23T14:41:00;17.90;97.50
60027;DHT22;45891;53.006;6.512;2023-03-23T14:43:26;18.10;97.80
60027;DHT22;45891;53.006;6.512;2023-03-23T14:45:54;18.00;97.40
60027;DHT22;45891;53.006;6.512;2023-03-23T14:48:20;17.80;97.50
60027;DHT22;45891;53.006;6.512;2023-03-23T14:51:04;16.70;98.10
60027;DHT22;45891;53.006;6.512;2023-03-23T14:53:35;17.30;97.80
60027;DHT22;45891;53.006;6.512;2023-03-23T14:56:02;17.30;98.40
60027;DHT22;45891;53.006;6.512;2023-03-23T14:58:30;17.90;97.90
60027;DHT22;45891;53.006;6.512;2023-03-23T15:01:01;17.80;97.60
60027;DHT22;45891;53.006;6.512;2023-03-23T15:03:30;16.80;98.00
60027;DHT22;45891;53.006;6.512;2023-03-23T15:05:59;16.70;98.60
60027;DHT22;45891;53.006;6.512;2023-03-23T15:08:27;17.70;97.90
60027;DHT22;45891;53.006;6.512;2023-03-23T15:13:25;17.90;96.80
60027;DHT22;45891;53.006;6.512;2023-03-23T15:15:51;18.40;96.80
60027;DHT22;45891;53.006;6.512;2023-03-23T15:18:25;18.80;96.30
60027;DHT22;45891;53.006;6.512;2023-03-23T15:20:52;18.00;96.80
60027;DHT22;45891;53.006;6.512;2023-03-23T15:23:22;17.80;96.60
60027;DHT22;45891;53.006;6.512;2023-03-23T15:25:51;18.10;96.50
60027;DHT22;45891;53.006;6.512;2023-03-23T15:28:31;18.10;96.30
60027;DHT22;45891;53.006;6.512;2023-03-23T15:31:02;18.40;96.30
60027;DHT22;45891;53.006;6.512;2023-03-23T15:33:38;18.60;96.20
60027;DHT22;45891;53.006;6.512;2023-03-23T15:36:08;18.70;96.00
60027;DHT22;45891;53.006;6.512;2023-03-23T15:38:35;18.80;95.90
60027;DHT22;45891;53.006;6.512;2023-03-23T15:41:03;18.70;95.80
60027;DHT22;45891;53.006;6.512;2023-03-23T15:43:33;18.50;95.60
60027;DHT22;45891;53.006;6.512;2023-03-23T15:48:33;18.60;95.40
60027;DHT22;45891;53.006;6.512;2023-03-23T15:50:59;18.60;95.30
60027;DHT22;45891;53.006;6.512;2023-03-23T15:55:54;18.20;95.90
60027;DHT22;45891;53.006;6.512;2023-03-23T15:58:20;17.80;95.70
60027;DHT22;45891;53.006;6.512;2023-03-23T16:00:46;17.70;96.20
60027;DHT22;45891;53.006;6.512;2023-03-23T16:03:13;17.70;96.20
60027;DHT22;45891;53.006;6.512;2023-03-23T16:05:42;17.90;96.20
60027;DHT22;45891;53.006;6.512;2023-03-23T16:08:10;17.80;96.50
60027;DHT22;45891;53.006;6.512;2023-03-23T16:10:36;17.50;96.80
60027;DHT22;45891;53.006;6.512;2023-03-23T16:13:02;17.20;97.00
60027;DHT22;45891;53.006;6.512;2023-03-23T16:15:30;16.80;97.50
60027;DHT22;45891;53.006;6.512;2023-03-23T16:17:56;16.70;97.40
60027;DHT22;45891;53.006;6.512;2023-03-23T16:20:22;16.70;97.20
60027;DHT22;45891;53.006;6.512;2023-03-23T16:22:49;16.40;97.80
60027;DHT22;45891;53.006;6.512;2023-03-23T16:25:15;16.00;98.20
60027;DHT22;45891;53.006;6.512;2023-03-23T16:27:41;15.80;98.20
60027;DHT22;45891;53.006;6.512;2023-03-23T16:30:12;16.00;98.50
60027;DHT22;45891;53.006;6.512;2023-03-23T16:32:39;16.40;98.10
60027;DHT22;45891;53.006;6.512;2023-03-23T16:35:05;15.70;98.60
60027;DHT22;45891;53.006;6.512;2023-03-23T16:37:31;15.20;99.20
60027;DHT22;45891;53.006;6.512;2023-03-23T16:39:58;14.80;99.70
60027;DHT22;45891;53.006;6.512;2023-03-23T16:42:24;14.60;99.90
60027;DHT22;45891;53.006;6.512;2023-03-23T16:44:50;14.80;99.90
60027;DHT22;45891;53.006;6.512;2023-03-23T16:47:16;14.80;99.90
60027;DHT22;45891;53.006;6.512;2023-03-23T16:49:43;14.80;99.90
60027;DHT22;45891;53.006;6.512;2023-03-23T16:52:09;14.90;99.90
60027;DHT22;45891;53.006;6.512;2023-03-23T16:54:35;14.60;99.90
60027;DHT22;45891;53.006;6.512;2023-03-23T16:57:01;14.30;99.90
60027;DHT22;45891;53.006;6.512;2023-03-23T16:59:27;14.10;99.90
60027;DHT22;45891;53.006;6.512;2023-03-23T17:01:53;13.90;99.90
60027;DHT22;45891;53.006;6.512;2023-03-23T17:04:19;13.80;99.90
60027;DHT22;45891;53.006;6.512;2023-03-23T17:06:45;13.70;99.90
60027;DHT22;45891;53.006;6.512;2023-03-23T17:09:11;13.60;99.90
60027;DHT22;45891;53.006;6.512;2023-03-23T17:11:37;13.60;99.90
60027;DHT22;45891;53.006;6.512;2023-03-23T17:14:03;13.50;99.90
60027;DHT22;45891;53.006;6.512;2023-03-23T17:16:29;13.50;99.90